createdAt,value
2022-12-11T00:00:43.591Z,1
2022-12-11T00:02:27.291Z,1
2022-12-11T00:04:10.984Z,2
2022-12-11T00:05:54.738Z,1
2022-12-11T00:07:38.406Z,1
2022-12-11T00:09:22.099Z,1
2022-12-11T00:11:05.800Z,1
2022-12-11T00:12:49.512Z,1
2022-12-11T00:14:33.212Z,1
2022-12-11T00:16:16.926Z,1
2022-12-11T00:18:00.617Z,1
2022-12-11T00:19:44.322Z,1
2022-12-11T00:21:28.035Z,1
2022-12-11T00:23:11.722Z,1
2022-12-11T00:24:55.424Z,2
2022-12-11T00:26:39.131Z,0
2022-12-11T00:28:22.832Z,0
2022-12-11T00:30:06.548Z,1
2022-12-11T00:31:50.237Z,1
2022-12-11T00:33:33.942Z,9
2022-12-11T00:35:17.674Z,9
2022-12-11T00:37:01.347Z,10
2022-12-11T00:38:45.058Z,1
2022-12-11T00:40:28.747Z,1
2022-12-11T00:42:12.459Z,1
2022-12-11T00:43:56.213Z,1
2022-12-11T00:45:39.856Z,1
2022-12-11T00:47:23.557Z,0
2022-12-11T00:49:07.261Z,1
2022-12-11T00:50:50.981Z,1
2022-12-11T00:52:34.666Z,1
2022-12-11T00:54:18.372Z,1
2022-12-11T00:56:02.104Z,2
2022-12-11T00:57:45.809Z,0
2022-12-11T00:59:29.587Z,1
2022-12-11T01:01:13.186Z,2
2022-12-11T01:02:56.893Z,0
2022-12-11T01:04:40.584Z,2
2022-12-11T01:06:24.294Z,0
2022-12-11T01:08:07.999Z,1
2022-12-11T01:09:51.702Z,2
2022-12-11T01:11:35.425Z,1
2022-12-11T01:13:19.165Z,1
2022-12-11T01:15:02.802Z,1
2022-12-11T01:16:46.523Z,1
2022-12-11T01:18:30.206Z,0
2022-12-11T01:20:13.982Z,1
2022-12-11T01:21:57.615Z,1
2022-12-11T01:23:41.317Z,1
2022-12-11T01:25:25.017Z,1
2022-12-11T01:27:08.776Z,1
2022-12-11T01:28:52.457Z,1
2022-12-11T01:30:36.146Z,1
2022-12-11T01:32:19.828Z,1
2022-12-11T01:34:03.528Z,1
2022-12-11T01:35:47.227Z,1
2022-12-11T01:37:30.989Z,1
2022-12-11T01:39:14.635Z,1
2022-12-11T01:40:58.343Z,1
2022-12-11T01:42:42.041Z,1
2022-12-11T01:44:25.746Z,1
2022-12-11T01:46:09.450Z,1
2022-12-11T01:47:53.153Z,1
2022-12-11T01:49:36.856Z,1
2022-12-11T01:51:20.551Z,1
2022-12-11T01:53:04.259Z,1
2022-12-11T01:54:47.965Z,0
2022-12-11T01:56:31.663Z,1
2022-12-11T01:58:15.365Z,1
2022-12-11T01:59:59.084Z,1
2022-12-11T02:01:42.780Z,1
2022-12-11T02:03:26.480Z,1
2022-12-11T02:05:10.179Z,0
2022-12-11T02:06:53.872Z,1
2022-12-11T02:08:37.589Z,1
2022-12-11T02:10:21.281Z,1
2022-12-11T02:12:04.985Z,1
2022-12-11T02:13:48.694Z,1
2022-12-11T02:15:32.400Z,2
2022-12-11T02:17:16.102Z,1
2022-12-11T02:18:59.799Z,1
2022-12-11T02:20:43.510Z,1
2022-12-11T02:22:27.209Z,1
2022-12-11T02:24:10.914Z,2
2022-12-11T02:25:54.610Z,1
2022-12-11T02:27:38.311Z,1
2022-12-11T02:29:22.012Z,1
2022-12-11T02:31:05.724Z,0
2022-12-11T02:32:49.417Z,0
2022-12-11T02:34:33.126Z,1
2022-12-11T02:36:16.829Z,1
2022-12-11T02:38:00.522Z,0
2022-12-11T02:39:44.233Z,1
2022-12-11T02:41:27.940Z,0
2022-12-11T02:43:11.633Z,1
2022-12-11T02:44:55.342Z,1
2022-12-11T02:46:39.048Z,1
2022-12-11T02:48:22.751Z,1
2022-12-11T02:50:06.486Z,1
2022-12-11T02:51:50.151Z,1
2022-12-11T02:53:33.861Z,1
2022-12-11T02:55:17.621Z,1
2022-12-11T02:57:01.259Z,1
2022-12-11T02:58:44.979Z,0
2022-12-11T03:00:28.669Z,1
2022-12-11T03:02:12.369Z,1
2022-12-11T03:03:56.078Z,1
2022-12-11T03:05:39.783Z,2
2022-12-11T03:07:23.482Z,1
2022-12-11T03:09:07.189Z,1
2022-12-11T03:10:50.879Z,1
2022-12-11T03:12:34.591Z,2
2022-12-11T03:14:18.294Z,1
2022-12-11T03:16:01.998Z,1
2022-12-11T03:17:45.751Z,1
2022-12-11T03:19:29.415Z,1
2022-12-11T03:21:13.099Z,1
2022-12-11T03:22:56.811Z,1
2022-12-11T03:24:40.502Z,1
2022-12-11T03:26:24.207Z,1
2022-12-11T03:28:07.915Z,1
2022-12-11T03:29:51.618Z,1
2022-12-11T03:31:35.326Z,1
2022-12-11T03:33:19.023Z,1
2022-12-11T03:35:02.722Z,1
2022-12-11T03:36:46.435Z,1
2022-12-11T03:38:30.131Z,1
2022-12-11T03:40:13.832Z,1
2022-12-11T03:41:57.542Z,1
2022-12-11T03:43:41.259Z,1
2022-12-11T03:45:24.947Z,1
2022-12-11T03:47:08.647Z,2
2022-12-11T03:48:52.352Z,1
2022-12-11T03:50:36.107Z,1
2022-12-11T03:52:19.754Z,3
2022-12-11T03:54:03.468Z,1
2022-12-11T03:55:47.169Z,1
2022-12-11T03:57:30.870Z,1
2022-12-11T03:59:14.579Z,1
2022-12-11T04:00:58.274Z,1
2022-12-11T04:02:42.001Z,1
2022-12-11T04:04:25.693Z,0
2022-12-11T04:06:09.381Z,1
2022-12-11T04:07:53.084Z,1
2022-12-11T04:09:36.782Z,1
2022-12-11T04:11:20.504Z,2
2022-12-11T04:13:04.198Z,1
2022-12-11T04:14:47.888Z,1
2022-12-11T04:16:31.589Z,1
2022-12-11T04:18:15.302Z,2
2022-12-11T04:19:59.001Z,1
2022-12-11T04:21:42.706Z,1
2022-12-11T04:23:26.402Z,1
2022-12-11T04:25:10.109Z,1
2022-12-11T04:26:53.822Z,1
2022-12-11T04:28:37.511Z,1
2022-12-11T04:30:21.272Z,1
2022-12-11T04:32:04.918Z,1
2022-12-11T04:33:48.617Z,1
2022-12-11T04:35:32.323Z,1
2022-12-11T04:37:16.026Z,1
2022-12-11T04:38:59.726Z,1
2022-12-11T04:40:43.436Z,1
2022-12-11T04:42:27.125Z,1
2022-12-11T04:44:10.835Z,1
2022-12-11T04:45:54.542Z,2
2022-12-11T04:47:38.245Z,1
2022-12-11T04:49:21.943Z,0
2022-12-11T04:51:05.647Z,1
2022-12-11T04:52:49.349Z,2
2022-12-11T04:54:33.052Z,1
2022-12-11T04:56:16.748Z,1
2022-12-11T04:58:00.456Z,1
2022-12-11T04:59:44.165Z,1
2022-12-11T05:01:27.856Z,1
2022-12-11T05:03:11.567Z,1
2022-12-11T05:04:55.262Z,1
2022-12-11T05:06:38.970Z,1
2022-12-11T05:08:22.679Z,1
2022-12-11T05:10:06.396Z,1
2022-12-11T05:11:50.074Z,1
2022-12-11T05:13:33.780Z,1
2022-12-11T05:15:17.562Z,1
2022-12-11T05:17:01.182Z,1
2022-12-11T05:18:44.893Z,0
2022-12-11T05:20:28.593Z,1
2022-12-11T05:22:12.308Z,1
2022-12-11T05:23:56.003Z,1
2022-12-11T05:25:39.709Z,2
2022-12-11T05:27:23.418Z,1
2022-12-11T05:29:07.109Z,1
2022-12-11T05:30:50.821Z,1
2022-12-11T05:32:34.514Z,0
2022-12-11T05:34:18.221Z,1
2022-12-11T05:36:01.922Z,1
2022-12-11T05:37:45.629Z,1
2022-12-11T05:39:29.328Z,0
2022-12-11T05:41:13.036Z,1
2022-12-11T05:42:56.739Z,0
2022-12-11T05:44:40.442Z,1
2022-12-11T05:46:24.181Z,1
2022-12-11T05:48:07.835Z,1
2022-12-11T05:49:51.552Z,1
2022-12-11T05:51:35.251Z,1
2022-12-11T05:53:18.968Z,2
2022-12-11T05:55:02.667Z,1
2022-12-11T05:56:46.357Z,2
2022-12-11T05:58:30.062Z,1
2022-12-11T06:00:13.767Z,1
2022-12-11T06:01:57.477Z,2
2022-12-11T06:03:41.197Z,1
2022-12-11T06:05:24.921Z,1
2022-12-11T06:07:08.580Z,1
2022-12-11T06:08:52.284Z,2
2022-12-11T06:10:35.983Z,1
2022-12-11T06:12:19.749Z,1
2022-12-11T06:14:03.392Z,1
2022-12-11T06:15:47.116Z,0
2022-12-11T06:17:30.799Z,1
2022-12-11T06:19:14.497Z,0
2022-12-11T06:20:58.205Z,0
2022-12-11T06:22:41.905Z,0
2022-12-11T06:24:25.641Z,1
2022-12-11T06:26:09.390Z,0
2022-12-11T06:27:53.081Z,1
2022-12-11T06:29:36.714Z,2
2022-12-11T06:31:20.420Z,2
2022-12-11T06:33:04.112Z,1
2022-12-11T06:34:47.845Z,2
2022-12-11T06:36:31.526Z,2
2022-12-11T06:38:15.263Z,3
2022-12-11T06:39:58.925Z,3
2022-12-11T06:41:42.633Z,3
2022-12-11T06:43:26.332Z,4
2022-12-11T06:45:10.038Z,6
2022-12-11T06:46:53.731Z,6
2022-12-11T06:48:37.450Z,8
2022-12-11T06:50:21.143Z,10
2022-12-11T06:52:04.843Z,12
2022-12-11T06:53:48.542Z,14
2022-12-11T06:55:32.296Z,16
2022-12-11T06:57:15.949Z,19
2022-12-11T06:58:59.654Z,21
2022-12-11T07:00:43.358Z,24
2022-12-11T07:02:27.113Z,27
2022-12-11T07:04:10.772Z,29
2022-12-11T07:05:54.460Z,32
2022-12-11T07:07:38.174Z,35
2022-12-11T07:09:21.875Z,41
2022-12-11T07:11:05.587Z,53
2022-12-11T07:12:49.274Z,68
2022-12-11T07:14:32.973Z,79
2022-12-11T07:16:16.703Z,85
2022-12-11T07:18:00.492Z,98
2022-12-11T07:19:44.080Z,118
2022-12-11T07:21:27.858Z,129
2022-12-11T07:23:11.489Z,134
2022-12-11T07:24:55.347Z,156
2022-12-11T07:26:38.938Z,187
2022-12-11T07:28:22.628Z,214
2022-12-11T07:30:06.298Z,231
2022-12-11T07:31:50.169Z,245
2022-12-11T07:33:33.701Z,260
2022-12-11T07:35:17.402Z,275
2022-12-11T07:37:01.121Z,276
2022-12-11T07:38:44.909Z,284
2022-12-11T07:40:28.512Z,264
2022-12-11T07:42:12.222Z,238
2022-12-11T07:43:55.919Z,231
2022-12-11T07:45:39.658Z,234
2022-12-11T07:47:23.332Z,241
2022-12-11T07:49:07.034Z,257
2022-12-11T07:50:50.735Z,278
2022-12-11T07:52:34.438Z,307
2022-12-11T07:54:18.163Z,355
2022-12-11T07:56:01.852Z,388
2022-12-11T07:57:45.549Z,495
2022-12-11T07:59:29.244Z,551
2022-12-11T08:01:13.003Z,599
2022-12-11T08:02:56.661Z,661
2022-12-11T08:04:40.411Z,716
2022-12-11T08:06:24.062Z,736
2022-12-11T08:08:07.761Z,735
2022-12-11T08:09:51.464Z,736
2022-12-11T08:11:35.167Z,736
2022-12-11T08:13:18.872Z,737
2022-12-11T08:15:02.591Z,728
2022-12-11T08:16:46.281Z,736
2022-12-11T08:18:29.979Z,735
2022-12-11T08:20:13.696Z,736
2022-12-11T08:21:57.390Z,736
2022-12-11T08:23:41.101Z,736
2022-12-11T08:25:24.783Z,736
2022-12-11T08:27:08.490Z,737
2022-12-11T08:28:52.199Z,736
2022-12-11T08:30:35.899Z,736
2022-12-11T08:32:19.597Z,658
2022-12-11T08:34:03.292Z,632
2022-12-11T08:35:47.008Z,609
2022-12-11T08:37:30.709Z,578
2022-12-11T08:39:14.400Z,585
2022-12-11T08:40:58.115Z,544
2022-12-11T08:42:41.820Z,500
2022-12-11T08:44:25.513Z,491
2022-12-11T08:46:09.215Z,503
2022-12-11T08:47:52.940Z,727
2022-12-11T08:49:36.630Z,630
2022-12-11T08:51:20.332Z,565
2022-12-11T08:53:04.096Z,572
2022-12-11T08:54:47.733Z,561
2022-12-11T08:56:31.443Z,543
2022-12-11T08:58:15.137Z,535
2022-12-11T08:59:58.842Z,535
2022-12-11T09:01:42.555Z,542
2022-12-11T09:03:26.283Z,547
2022-12-11T09:05:09.948Z,552
2022-12-11T09:06:53.650Z,552
2022-12-11T09:08:37.405Z,560
2022-12-11T09:10:21.057Z,567
2022-12-11T09:12:04.752Z,571
2022-12-11T09:13:48.468Z,582
2022-12-11T09:15:32.164Z,601
2022-12-11T09:17:15.913Z,624
2022-12-11T09:18:59.591Z,639
2022-12-11T09:20:43.272Z,653
2022-12-11T09:22:26.976Z,674
2022-12-11T09:24:10.680Z,705
2022-12-11T09:25:54.379Z,737
2022-12-11T09:27:38.084Z,736
2022-12-11T09:29:21.790Z,737
2022-12-11T09:31:05.483Z,736
2022-12-11T09:32:49.200Z,736
2022-12-11T09:34:33.005Z,736
2022-12-11T09:36:16.592Z,737
2022-12-11T09:38:00.307Z,735
2022-12-11T09:39:43.999Z,736
2022-12-11T09:41:27.701Z,737
2022-12-11T09:44:55.180Z,736
2022-12-11T09:46:38.813Z,736
2022-12-11T09:48:22.523Z,736
2022-12-11T09:50:06.220Z,737
2022-12-11T09:51:49.922Z,736
2022-12-11T09:53:33.621Z,735
2022-12-11T09:55:17.341Z,736
2022-12-11T09:57:01.022Z,737
2022-12-11T09:58:44.721Z,736
2022-12-11T10:00:28.424Z,736
2022-12-11T10:02:12.127Z,736
2022-12-11T10:03:55.831Z,736
2022-12-11T10:05:39.610Z,737
2022-12-11T10:07:23.237Z,728
2022-12-11T10:09:06.950Z,736
2022-12-11T10:10:50.658Z,736
2022-12-11T10:12:34.339Z,736
2022-12-11T10:14:18.058Z,735
2022-12-11T10:16:01.758Z,735
2022-12-11T10:17:45.442Z,736
2022-12-11T10:19:29.162Z,736
2022-12-11T10:21:12.862Z,735
2022-12-11T10:22:56.564Z,735
2022-12-11T10:24:40.270Z,736
2022-12-11T10:26:23.967Z,736
2022-12-11T10:28:07.667Z,737
2022-12-11T10:29:51.371Z,736
2022-12-11T10:31:35.078Z,736
2022-12-11T10:33:18.781Z,735
2022-12-11T10:35:02.502Z,735
2022-12-11T10:36:46.183Z,736
2022-12-11T10:38:29.890Z,736
2022-12-11T10:40:13.586Z,736
2022-12-11T10:41:57.298Z,736
2022-12-11T10:43:41.001Z,736
2022-12-11T10:45:24.691Z,736
2022-12-11T10:47:08.402Z,736
2022-12-11T10:48:52.103Z,736
2022-12-11T10:50:35.805Z,737
2022-12-11T10:52:19.505Z,736
2022-12-11T10:54:03.208Z,734
2022-12-11T10:55:46.919Z,736
2022-12-11T10:57:30.624Z,736
2022-12-11T10:59:14.330Z,735
2022-12-11T11:00:58.027Z,736
2022-12-11T11:02:41.729Z,736
2022-12-11T11:04:25.422Z,736
2022-12-11T11:06:09.144Z,736
2022-12-11T11:07:52.831Z,734
2022-12-11T11:09:36.534Z,736
2022-12-11T11:11:20.231Z,735
2022-12-11T11:13:03.934Z,736
2022-12-11T11:14:47.652Z,736
2022-12-11T11:16:31.352Z,735
2022-12-11T11:18:15.037Z,737
2022-12-11T11:19:58.752Z,737
2022-12-11T11:21:42.452Z,736
2022-12-11T11:23:26.162Z,735
2022-12-11T11:25:09.853Z,733
2022-12-11T11:26:53.557Z,706
2022-12-11T11:28:37.261Z,692
2022-12-11T11:30:20.968Z,699
2022-12-11T11:32:04.662Z,716
2022-12-11T11:33:48.370Z,732
2022-12-11T11:35:32.075Z,734
2022-12-11T11:37:15.782Z,733
2022-12-11T11:38:59.480Z,734
2022-12-11T11:40:43.184Z,732
2022-12-11T11:42:26.887Z,736
2022-12-11T11:44:10.606Z,736
2022-12-11T11:45:54.294Z,736
2022-12-11T11:47:37.993Z,736
2022-12-11T11:49:21.770Z,736
2022-12-11T11:51:05.437Z,736
2022-12-11T11:52:49.124Z,735
2022-12-11T11:54:32.805Z,737
2022-12-11T11:56:16.504Z,736
2022-12-11T11:58:00.209Z,735
2022-12-11T11:59:43.987Z,734
2022-12-11T12:01:27.618Z,737
2022-12-11T12:03:11.324Z,736
2022-12-11T12:04:55.016Z,735
2022-12-11T12:06:38.798Z,736
2022-12-11T12:08:22.436Z,736
2022-12-11T12:10:06.124Z,737
2022-12-11T12:11:49.831Z,735
2022-12-11T12:13:33.539Z,731
2022-12-11T12:15:17.265Z,736
2022-12-11T12:17:00.952Z,738
2022-12-11T12:18:44.640Z,736
2022-12-11T12:20:28.343Z,735
2022-12-11T12:22:12.057Z,736
2022-12-11T12:23:55.751Z,736
2022-12-11T12:25:39.501Z,737
2022-12-11T12:27:23.163Z,735
2022-12-11T12:29:06.857Z,735
2022-12-11T12:30:50.604Z,736
2022-12-11T12:32:34.266Z,736
2022-12-11T12:34:17.983Z,736
2022-12-11T12:36:01.676Z,736
2022-12-11T12:37:45.374Z,736
2022-12-11T12:39:29.084Z,737
2022-12-11T12:41:12.781Z,735
2022-12-11T12:42:56.475Z,735
2022-12-11T12:44:40.182Z,736
2022-12-11T12:46:23.909Z,736
2022-12-11T12:48:07.592Z,736
2022-12-11T12:49:51.309Z,735
2022-12-11T12:51:34.990Z,736
2022-12-11T12:53:18.698Z,736
2022-12-11T12:55:02.409Z,736
2022-12-11T12:56:46.096Z,735
2022-12-11T12:58:29.804Z,736
2022-12-11T13:00:13.732Z,728
2022-12-11T13:01:57.253Z,737
2022-12-11T13:03:40.925Z,736
2022-12-11T13:05:24.716Z,735
2022-12-11T13:07:08.343Z,736
2022-12-11T13:08:52.016Z,712
2022-12-11T13:10:35.720Z,684
2022-12-11T13:12:19.424Z,663
2022-12-11T13:14:03.130Z,636
2022-12-11T13:15:46.852Z,603
2022-12-11T13:17:30.588Z,572
2022-12-11T13:19:14.229Z,549
2022-12-11T13:20:57.984Z,529
2022-12-11T13:22:41.682Z,522
2022-12-11T13:24:25.411Z,526
2022-12-11T13:26:09.052Z,528
2022-12-11T13:27:52.758Z,508
2022-12-11T13:29:36.545Z,479
2022-12-11T13:31:20.151Z,459
2022-12-11T13:33:03.848Z,458
2022-12-11T13:34:47.558Z,450
2022-12-11T13:36:31.261Z,430
2022-12-11T13:38:14.955Z,406
2022-12-11T13:39:58.659Z,394
2022-12-11T13:41:42.359Z,384
2022-12-11T13:43:26.090Z,380
2022-12-11T13:45:09.763Z,367
2022-12-11T13:46:53.470Z,349
2022-12-11T13:48:37.196Z,334
2022-12-11T13:50:20.876Z,313
2022-12-11T13:52:04.576Z,301
2022-12-11T13:53:48.281Z,284
2022-12-11T13:55:31.988Z,269
2022-12-11T13:57:15.685Z,253
2022-12-11T13:58:59.383Z,240
2022-12-11T14:00:43.097Z,232
2022-12-11T14:02:26.796Z,224
2022-12-11T14:04:10.494Z,214
2022-12-11T14:05:54.196Z,205
2022-12-11T14:07:37.939Z,196
2022-12-11T14:09:21.611Z,190
2022-12-11T14:11:05.304Z,182
2022-12-11T14:12:49.007Z,178
2022-12-11T14:14:32.731Z,174
2022-12-11T14:16:16.419Z,170
2022-12-11T14:18:00.123Z,164
2022-12-11T14:19:43.822Z,162
2022-12-11T14:21:27.540Z,159
2022-12-11T14:23:11.248Z,154
2022-12-11T14:24:54.923Z,153
2022-12-11T14:26:38.634Z,147
2022-12-11T14:28:22.338Z,139
2022-12-11T14:30:06.039Z,134
2022-12-11T14:31:49.747Z,131
2022-12-11T14:33:33.439Z,135
2022-12-11T14:35:17.145Z,142
2022-12-11T14:37:00.860Z,155
2022-12-11T14:38:44.554Z,163
2022-12-11T14:40:28.246Z,162
2022-12-11T14:42:11.959Z,156
2022-12-11T14:43:55.701Z,151
2022-12-11T14:45:39.358Z,144
2022-12-11T14:47:23.202Z,138
2022-12-11T14:49:06.765Z,136
2022-12-11T14:50:50.493Z,135
2022-12-11T14:52:34.165Z,138
2022-12-11T14:54:17.878Z,137
2022-12-11T14:56:01.574Z,137
2022-12-11T14:57:45.281Z,132
2022-12-11T14:59:28.980Z,126
2022-12-11T15:01:12.679Z,117
2022-12-11T15:02:56.385Z,110
2022-12-11T15:04:40.094Z,107
2022-12-11T15:06:23.788Z,105
2022-12-11T15:08:07.486Z,102
2022-12-11T15:09:51.201Z,96
2022-12-11T15:11:34.901Z,88
2022-12-11T15:13:18.610Z,80
2022-12-11T15:15:02.362Z,72
2022-12-11T15:16:46.013Z,64
2022-12-11T15:18:29.709Z,58
2022-12-11T15:20:13.425Z,54
2022-12-11T15:21:57.187Z,52
2022-12-11T15:23:40.846Z,47
2022-12-11T15:25:24.532Z,42
2022-12-11T15:27:08.265Z,38
2022-12-11T15:28:51.928Z,34
2022-12-11T15:30:35.717Z,30
2022-12-11T15:32:19.335Z,27
2022-12-11T15:34:03.050Z,25
2022-12-11T15:35:46.741Z,23
2022-12-11T15:37:30.438Z,19
2022-12-11T15:39:14.147Z,17
2022-12-11T15:40:57.920Z,15
2022-12-11T15:42:41.542Z,13
2022-12-11T15:44:25.260Z,10
2022-12-11T15:46:08.964Z,9
2022-12-11T15:47:52.657Z,7
2022-12-11T15:49:36.364Z,6
2022-12-11T15:51:20.069Z,5
2022-12-11T15:53:03.783Z,4
2022-12-11T15:54:47.513Z,4
2022-12-11T15:56:31.179Z,3
2022-12-11T15:58:14.877Z,3
2022-12-11T15:59:58.642Z,12
2022-12-11T16:01:42.289Z,11
2022-12-11T16:03:25.988Z,11
2022-12-11T16:05:09.692Z,11
2022-12-11T16:06:53.397Z,2
2022-12-11T16:08:37.162Z,3
2022-12-11T16:10:20.827Z,2
2022-12-11T16:12:04.506Z,3
2022-12-11T16:13:48.202Z,3
2022-12-11T16:15:31.922Z,2
2022-12-11T16:17:15.615Z,3
2022-12-11T16:18:59.314Z,2
2022-12-11T16:20:43.025Z,3
2022-12-11T16:22:26.725Z,3
2022-12-11T16:24:10.426Z,2
2022-12-11T16:25:54.146Z,3
2022-12-11T16:27:37.917Z,2
2022-12-11T16:29:21.608Z,3
2022-12-11T16:31:05.235Z,2
2022-12-11T16:32:48.954Z,3
2022-12-11T16:34:32.661Z,3
2022-12-11T16:36:16.376Z,3
2022-12-11T16:38:00.231Z,2
2022-12-11T16:39:43.757Z,3
2022-12-11T16:41:27.457Z,2
2022-12-11T16:43:11.148Z,11
2022-12-11T16:44:54.961Z,8
2022-12-11T16:46:38.566Z,11
2022-12-11T16:48:22.295Z,12
2022-12-11T16:50:05.977Z,20
2022-12-11T16:51:49.667Z,19
2022-12-11T16:53:33.377Z,3
2022-12-11T16:55:17.143Z,3
2022-12-11T16:57:00.827Z,2
2022-12-11T16:58:44.481Z,3
2022-12-11T17:00:28.188Z,2
2022-12-11T17:02:11.974Z,3
2022-12-11T17:03:55.595Z,3
2022-12-11T17:05:39.371Z,3
2022-12-11T17:07:23.001Z,3
2022-12-11T17:09:06.700Z,2
2022-12-11T17:10:50.425Z,2
2022-12-11T17:12:34.152Z,3
2022-12-11T17:14:17.821Z,3
2022-12-11T17:16:01.512Z,2
2022-12-11T17:17:45.230Z,3
2022-12-11T17:19:28.924Z,3
2022-12-11T17:21:12.625Z,3
2022-12-11T17:22:56.340Z,2
2022-12-11T17:24:40.022Z,2
2022-12-11T17:26:23.754Z,2
2022-12-11T17:28:07.517Z,2
2022-12-11T17:29:51.187Z,3
2022-12-11T17:31:34.873Z,3
2022-12-11T17:33:18.540Z,3
2022-12-11T17:35:02.239Z,2
2022-12-11T17:36:45.952Z,2
2022-12-11T17:38:29.762Z,2
2022-12-11T17:40:13.366Z,3
2022-12-11T17:41:57.056Z,3
2022-12-11T17:43:40.755Z,2
2022-12-11T17:45:24.498Z,2
2022-12-11T17:47:08.173Z,2
2022-12-11T17:48:51.912Z,2
2022-12-11T17:50:35.579Z,2
2022-12-11T17:52:19.274Z,3
2022-12-11T17:54:03.016Z,3
2022-12-11T17:55:46.685Z,2
2022-12-11T17:57:30.384Z,3
2022-12-11T17:59:14.091Z,3
2022-12-11T18:00:57.798Z,2
2022-12-11T18:02:41.536Z,3
2022-12-11T18:04:25.192Z,3
2022-12-11T18:06:08.895Z,3
2022-12-11T18:07:52.593Z,2
2022-12-11T18:09:36.320Z,11
2022-12-11T18:11:20.002Z,11
2022-12-11T18:13:03.699Z,11
2022-12-11T18:14:47.408Z,3
2022-12-11T18:16:31.110Z,3
2022-12-11T18:18:14.812Z,2
2022-12-11T18:19:58.513Z,2
2022-12-11T18:21:42.241Z,3
2022-12-11T18:23:25.924Z,3
2022-12-11T18:25:09.662Z,2
2022-12-11T18:26:53.482Z,2
2022-12-11T18:28:37.038Z,3
2022-12-11T18:30:20.812Z,2
2022-12-11T18:32:04.482Z,3
2022-12-11T18:33:48.137Z,2
2022-12-11T18:35:31.857Z,3
2022-12-11T18:37:15.549Z,2
2022-12-11T18:38:59.247Z,2
2022-12-11T18:40:42.961Z,3
2022-12-11T18:42:26.660Z,3
2022-12-11T18:44:10.362Z,10
2022-12-11T18:45:54.226Z,20
2022-12-11T18:47:37.756Z,20
2022-12-11T18:49:21.463Z,20
2022-12-11T18:51:05.167Z,20
2022-12-11T18:52:48.873Z,20
2022-12-11T18:54:32.572Z,20
2022-12-11T18:56:16.282Z,20
2022-12-11T18:57:59.994Z,20
2022-12-11T18:59:43.678Z,20
2022-12-11T19:01:27.421Z,20
2022-12-11T19:03:11.165Z,20
2022-12-11T19:04:54.803Z,19
2022-12-11T19:06:38.604Z,19
2022-12-11T19:08:22.195Z,19
2022-12-11T19:10:05.907Z,21
2022-12-11T19:11:49.594Z,20
2022-12-11T19:13:33.298Z,19
2022-12-11T19:15:17.001Z,20
2022-12-11T19:17:00.748Z,20
2022-12-11T19:18:44.422Z,19
2022-12-11T19:20:28.102Z,21
2022-12-11T19:22:11.887Z,20
2022-12-11T19:23:55.518Z,16
2022-12-11T19:25:39.218Z,20
2022-12-11T19:27:22.923Z,20
2022-12-11T19:29:06.620Z,21
2022-12-11T19:30:50.395Z,20
2022-12-11T19:32:34.030Z,21
2022-12-11T19:34:17.741Z,19
2022-12-11T19:36:01.432Z,20
2022-12-11T19:37:45.129Z,20
2022-12-11T19:39:28.842Z,20
2022-12-11T19:41:12.544Z,20
2022-12-11T19:42:56.277Z,20
2022-12-11T19:44:39.998Z,19
2022-12-11T19:46:23.651Z,20
2022-12-11T19:48:07.355Z,20
2022-12-11T19:49:51.061Z,20
2022-12-11T19:51:34.757Z,21
2022-12-11T19:53:18.461Z,18
2022-12-11T19:55:02.175Z,18
2022-12-11T19:56:45.887Z,20
2022-12-11T19:58:29.568Z,20
2022-12-11T20:00:13.286Z,20
2022-12-11T20:01:56.966Z,19
2022-12-11T20:03:40.677Z,20
2022-12-11T20:05:24.385Z,19
2022-12-11T20:07:08.142Z,20
2022-12-11T20:08:51.783Z,21
2022-12-11T20:10:35.486Z,18
2022-12-11T20:12:19.286Z,20
2022-12-11T20:14:02.899Z,20
2022-12-11T20:15:46.587Z,3
2022-12-11T20:17:30.294Z,3
2022-12-11T20:19:14.028Z,3
2022-12-11T20:20:57.745Z,3
2022-12-11T20:22:41.404Z,2
2022-12-11T20:24:25.107Z,2
2022-12-11T20:26:08.815Z,2
2022-12-11T20:27:52.582Z,3
2022-12-11T20:29:36.207Z,2
2022-12-11T20:31:19.921Z,3
2022-12-11T20:33:03.663Z,3
2022-12-11T20:34:47.384Z,2
2022-12-11T20:36:31.022Z,2
2022-12-11T20:38:14.735Z,2
2022-12-11T20:39:58.422Z,3
2022-12-11T20:41:42.130Z,3
2022-12-11T20:43:25.870Z,2
2022-12-11T20:45:09.542Z,3
2022-12-11T20:46:53.367Z,2
2022-12-11T20:48:37.002Z,2
2022-12-11T20:50:20.646Z,11
2022-12-11T20:52:04.359Z,11
2022-12-11T20:53:48.057Z,11
2022-12-11T20:55:31.833Z,11
2022-12-11T20:57:15.522Z,11
2022-12-11T20:58:59.196Z,11
2022-12-11T21:00:42.880Z,2
2022-12-11T21:02:26.566Z,2
2022-12-11T21:04:10.368Z,1
2022-12-11T21:05:54.058Z,2
2022-12-11T21:07:37.674Z,3
2022-12-11T21:09:21.386Z,2
2022-12-11T21:11:05.151Z,11
2022-12-11T21:12:48.787Z,2
2022-12-11T21:14:32.487Z,3
2022-12-11T21:16:16.189Z,3
2022-12-11T21:17:59.937Z,3
2022-12-11T21:19:43.660Z,2
2022-12-11T21:21:27.436Z,2
2022-12-11T21:23:11.005Z,2
2022-12-11T21:24:54.785Z,3
2022-12-11T21:26:38.516Z,2
2022-12-11T21:28:22.125Z,3
2022-12-11T21:30:05.830Z,2
2022-12-11T21:31:49.543Z,2
2022-12-11T21:33:33.233Z,1
2022-12-11T21:35:16.952Z,3
2022-12-11T21:37:00.621Z,2
2022-12-11T21:38:44.323Z,3
2022-12-11T21:40:28.064Z,2
2022-12-11T21:42:11.731Z,2
2022-12-11T21:43:55.431Z,2
2022-12-11T21:45:39.148Z,2
2022-12-11T21:47:22.845Z,2
2022-12-11T21:49:06.575Z,3
2022-12-11T21:50:50.305Z,3
2022-12-11T21:52:33.967Z,2
2022-12-11T21:54:17.650Z,3
2022-12-11T21:56:01.360Z,3
2022-12-11T21:57:45.084Z,3
2022-12-11T21:59:28.767Z,2
2022-12-11T22:01:12.460Z,2
2022-12-11T22:02:56.168Z,3
2022-12-11T22:04:39.885Z,10
2022-12-11T22:06:23.582Z,10
2022-12-11T22:08:07.388Z,11
2022-12-11T22:09:50.983Z,11
2022-12-11T22:11:34.662Z,2
2022-12-11T22:13:18.410Z,3
2022-12-11T22:15:02.071Z,2
2022-12-11T22:16:45.780Z,3
2022-12-11T22:18:29.481Z,3
2022-12-11T22:20:13.189Z,3
2022-12-11T22:21:56.892Z,3
2022-12-11T22:23:40.594Z,2
2022-12-11T22:25:24.304Z,3
2022-12-11T22:27:08.053Z,2
2022-12-11T22:28:51.771Z,3
2022-12-11T22:30:35.407Z,2
2022-12-11T22:32:19.120Z,3
2022-12-11T22:34:02.819Z,2
2022-12-11T22:35:46.530Z,2
2022-12-11T22:37:30.250Z,2
2022-12-11T22:39:13.924Z,2
2022-12-11T22:40:57.671Z,2
2022-12-11T22:42:41.346Z,3
2022-12-11T22:44:25.031Z,2
2022-12-11T22:46:08.733Z,2
2022-12-11T22:47:52.453Z,11
2022-12-11T22:49:36.145Z,11
2022-12-11T22:51:19.852Z,11
2022-12-11T22:53:03.530Z,3
2022-12-11T22:54:47.247Z,2
2022-12-11T22:56:30.969Z,3
2022-12-11T22:58:14.648Z,3
2022-12-11T22:59:58.348Z,2
2022-12-11T23:01:42.056Z,3
2022-12-11T23:03:25.753Z,3
2022-12-11T23:05:09.478Z,3
2022-12-11T23:06:53.155Z,2
2022-12-11T23:08:36.868Z,3
2022-12-11T23:10:20.576Z,2
2022-12-11T23:12:04.311Z,3
2022-12-11T23:13:48.008Z,1
2022-12-11T23:15:31.665Z,3
2022-12-11T23:17:15.393Z,2
2022-12-11T23:18:59.080Z,2
2022-12-11T23:20:42.788Z,3
2022-12-11T23:22:26.481Z,3
2022-12-11T23:24:10.191Z,2
2022-12-11T23:25:53.882Z,3
2022-12-11T23:27:37.582Z,2
2022-12-11T23:29:21.320Z,2
2022-12-11T23:31:04.991Z,3
2022-12-11T23:32:48.701Z,1
2022-12-11T23:34:32.431Z,2
2022-12-11T23:36:16.097Z,2
2022-12-11T23:37:59.843Z,11
2022-12-11T23:39:43.499Z,11
2022-12-11T23:41:27.200Z,11
2022-12-11T23:43:10.909Z,3
2022-12-11T23:44:54.631Z,3
2022-12-11T23:46:38.341Z,2
2022-12-11T23:48:22.091Z,2
2022-12-11T23:50:05.725Z,2
2022-12-11T23:51:49.428Z,2
2022-12-11T23:53:33.124Z,2
2022-12-11T23:55:16.868Z,2
2022-12-11T23:57:00.573Z,2
2022-12-11T23:58:44.241Z,2
